createdAt,value
2018-04-29T00:02:05.500Z,94882.50
2018-04-29T00:04:34.501Z,94873.38
2018-04-29T00:07:03.519Z,94880.58
2018-04-29T00:09:31.754Z,94880.86
2018-04-29T00:12:00.773Z,94883.20
2018-04-29T00:14:29.014Z,94878.39
2018-04-29T00:16:58.778Z,94886.91
2018-04-29T00:19:27.009Z,94874.37
2018-04-29T00:21:57.022Z,94885.78
2018-04-29T00:24:26.773Z,94879.27
2018-04-29T00:26:55.018Z,94873.38
2018-04-29T00:29:24.283Z,94870.92
2018-04-29T00:31:52.518Z,94871.06
2018-04-29T00:34:20.754Z,94871.56
2018-04-29T00:36:49.006Z,94875.41
2018-04-29T00:39:17.330Z,94876.64
2018-04-29T00:41:45.582Z,94874.52
2018-04-29T00:44:15.330Z,94873.68
2018-04-29T00:46:43.579Z,94872.20
2018-04-29T00:49:12.577Z,94869.56
2018-04-29T00:51:59.481Z,94869.91
2018-04-29T00:54:28.489Z,94875.08
2018-04-29T00:56:57.500Z,94880.66
2018-04-29T00:59:25.761Z,94885.08
2018-04-29T01:01:54.762Z,94885.63
2018-04-29T01:04:23.778Z,94880.55
2018-04-29T01:06:52.040Z,94877.91
2018-04-29T01:09:20.282Z,94875.47
2018-04-29T01:11:49.301Z,94879.84
2018-04-29T01:14:17.561Z,94886.70
2018-04-29T01:16:46.558Z,94884.55
2018-04-29T01:19:15.865Z,94883.61
2018-04-29T01:21:44.885Z,94880.11
2018-04-29T01:24:13.133Z,94884.25
2018-04-29T01:26:42.139Z,94884.86
2018-04-29T01:29:10.602Z,94882.71
2018-04-29T01:31:39.607Z,94891.19
2018-04-29T01:34:07.838Z,94888.82
2018-04-29T01:36:36.260Z,94891.73
2018-04-29T01:39:05.277Z,94891.45
2018-04-29T01:41:33.519Z,94888.81
2018-04-29T01:44:02.534Z,94886.98
2018-04-29T01:46:30.761Z,94894.83
2018-04-29T01:48:59.778Z,94917.06
2018-04-29T01:51:28.791Z,94930.70
2018-04-29T01:53:57.030Z,94927.38
2018-04-29T01:56:26.786Z,94939.20
2018-04-29T01:58:55.018Z,94939.41
2018-04-29T02:01:23.259Z,94937.63
2018-04-29T02:03:51.506Z,94936.13
2018-04-29T02:06:19.749Z,94943.13
2018-04-29T02:08:48.762Z,94947.63
2018-04-29T02:11:17.756Z,94946.05
2018-04-29T02:13:45.994Z,94943.91
2018-04-29T02:16:14.242Z,94948.55
2018-04-29T02:18:42.486Z,94950.54
2018-04-29T02:21:11.559Z,94947.30
2018-04-29T02:23:40.577Z,94950.08
2018-04-29T02:26:09.719Z,94955.23
2018-04-29T02:28:37.985Z,94956.53
2018-04-29T02:31:06.250Z,94964.60
2018-04-29T02:33:34.505Z,94960.26
2018-04-29T02:36:02.788Z,94971.91
2018-04-29T02:38:31.017Z,94968.22
2018-04-29T02:41:00.799Z,94977.13
2018-04-29T02:43:30.046Z,94973.60
2018-04-29T02:45:59.088Z,94979.56
2018-04-29T02:48:27.375Z,94979.84
2018-04-29T02:50:55.619Z,94982.30
2018-04-29T02:53:23.869Z,94976.91
2018-04-29T02:55:52.382Z,94972.08
2018-04-29T02:58:20.673Z,94978.06
2018-04-29T03:00:48.943Z,94972.68
2018-04-29T03:03:17.237Z,94961.19
2018-04-29T03:05:45.485Z,94960.11
2018-04-29T03:08:13.742Z,94968.95
2018-04-29T03:10:42.014Z,94967.64
2018-04-29T03:13:10.246Z,94967.09
2018-04-29T03:15:39.266Z,94975.93
2018-04-29T03:18:08.309Z,94981.23
2018-04-29T03:20:36.577Z,94982.69
2018-04-29T03:23:04.818Z,94979.81
2018-04-29T03:25:34.097Z,94982.83
2018-04-29T03:28:03.146Z,94989.77
2018-04-29T03:30:31.438Z,94984.55
2018-04-29T03:32:59.719Z,94981.64
2018-04-29T03:35:27.963Z,94983.67
2018-04-29T03:37:56.217Z,94988.06
2018-04-29T03:40:25.236Z,94990.94
2018-04-29T03:42:53.468Z,94984.46
2018-04-29T03:45:21.693Z,94994.33
2018-04-29T03:47:49.943Z,94993.59
2018-04-29T03:50:18.952Z,94993.14
2018-04-29T03:52:47.191Z,95002.44
2018-04-29T03:55:15.437Z,95006.58
2018-04-29T03:58:01.400Z,95009.91
2018-04-29T04:01:02.494Z,95007.20
2018-04-29T04:03:44.427Z,95018.67
2018-04-29T04:06:12.925Z,95024.50
2018-04-29T04:08:41.176Z,95027.16
2018-04-29T04:11:10.171Z,95023.50
2018-04-29T04:13:39.189Z,95020.36
2018-04-29T04:16:08.118Z,95016.87
2018-04-29T04:18:36.378Z,95020.77
2018-04-29T04:21:04.607Z,95022.24
2018-04-29T04:23:33.616Z,95027.75
2018-04-29T04:26:01.873Z,95038.09
2018-04-29T04:28:30.110Z,95034.52
2018-04-29T04:30:58.343Z,95035.81
2018-04-29T04:33:26.584Z,95030.38
2018-04-29T04:35:55.585Z,95029.09
2018-04-29T04:38:24.610Z,95027.43
2018-04-29T04:40:52.846Z,95029.95
2018-04-29T04:43:21.838Z,95032.64
2018-04-29T04:45:50.858Z,95039.47
2018-04-29T04:48:19.094Z,95050.21
2018-04-29T04:50:48.102Z,95049.86
2018-04-29T04:53:17.109Z,95053.59
2018-04-29T04:55:46.280Z,95054.33
2018-04-29T04:58:15.291Z,95052.77
2018-04-29T05:00:45.006Z,95056.73
2018-04-29T05:03:14.102Z,95058.78
2018-04-29T05:05:43.105Z,95066.79
2018-04-29T05:08:11.349Z,95059.72
2018-04-29T05:10:40.978Z,95060.83
2018-04-29T05:13:09.210Z,95055.61
2018-04-29T05:15:37.466Z,95058.38
2018-04-29T05:18:05.698Z,95059.66
2018-04-29T05:20:34.701Z,95067.22
2018-04-29T05:23:02.946Z,95068.30
2018-04-29T05:25:31.186Z,95072.08
2018-04-29T05:27:59.428Z,95073.21
2018-04-29T05:30:27.751Z,95073.59
2018-04-29T05:32:55.996Z,95070.91
2018-04-29T05:35:24.299Z,95065.74
2018-04-29T05:37:52.519Z,95065.06
2018-04-29T05:40:21.523Z,95063.34
2018-04-29T05:42:49.847Z,95056.52
2018-04-29T05:45:18.127Z,95051.13
2018-04-29T05:47:46.398Z,95044.63
2018-04-29T05:50:14.875Z,95044.22
2018-04-29T05:52:43.107Z,95044.64
2018-04-29T05:55:12.111Z,95045.78
2018-04-29T05:57:40.366Z,95037.25
2018-04-29T06:00:09.674Z,95038.27
2018-04-29T06:02:38.669Z,95032.22
2018-04-29T06:05:06.948Z,95036.25
2018-04-29T06:07:35.194Z,95035.41
2018-04-29T06:10:03.458Z,95034.47
2018-04-29T06:12:32.501Z,95032.11
2018-04-29T06:15:00.759Z,95023.41
2018-04-29T06:17:29.779Z,95025.66
2018-04-29T06:19:58.038Z,95017.97
2018-04-29T06:22:27.138Z,95015.44
2018-04-29T06:24:55.378Z,95004.81
2018-04-29T06:27:23.614Z,95011.41
2018-04-29T06:29:51.869Z,95004.84
2018-04-29T06:32:20.153Z,95008.87
2018-04-29T06:34:48.586Z,95010.19
2018-04-29T06:37:18.381Z,95000.08
2018-04-29T06:39:47.413Z,94999.00
2018-04-29T06:42:15.681Z,94997.05
2018-04-29T06:44:45.424Z,95001.81
2018-04-29T06:47:13.726Z,94998.34
2018-04-29T06:49:42.154Z,94995.52
2018-04-29T06:52:11.159Z,94993.64
2018-04-29T06:54:39.405Z,94998.55
2018-04-29T06:57:07.686Z,94999.77
2018-04-29T06:59:36.695Z,94991.90
2018-04-29T07:02:05.705Z,94992.63
2018-04-29T07:04:33.977Z,94993.73
2018-04-29T07:07:02.241Z,94986.61
2018-04-29T07:09:31.251Z,94986.11
2018-04-29T07:11:59.547Z,94992.34
2018-04-29T07:14:27.798Z,94982.69
2018-04-29T07:16:56.043Z,94975.23
2018-04-29T07:19:25.046Z,94980.09
2018-04-29T07:21:54.084Z,94970.95
2018-04-29T07:24:22.385Z,94977.41
2018-04-29T07:26:50.617Z,94969.34
2018-04-29T07:29:18.926Z,94963.73
2018-04-29T07:31:47.164Z,94960.29
2018-04-29T07:34:15.690Z,94951.77
2018-04-29T07:36:43.940Z,94949.33
2018-04-29T07:39:12.176Z,94945.15
2018-04-29T07:41:41.232Z,94948.05
2018-04-29T07:44:09.529Z,94951.95
2018-04-29T07:46:38.817Z,94952.63
2018-04-29T07:49:07.835Z,94957.58
2018-04-29T07:51:36.848Z,94950.77
2018-04-29T07:54:05.150Z,94960.16
2018-04-29T07:56:33.392Z,94953.55
2018-04-29T07:59:02.446Z,94947.61
2018-04-29T08:01:30.733Z,94945.00
2018-04-29T08:03:59.745Z,94934.08
2018-04-29T08:06:27.991Z,94930.60
2018-04-29T08:08:56.268Z,94924.00
2018-04-29T08:11:24.495Z,94927.30
2018-04-29T08:13:52.754Z,94922.47
2018-04-29T08:16:21.791Z,94915.91
2018-04-29T08:18:50.041Z,94913.91
2018-04-29T08:21:18.315Z,94913.14
2018-04-29T08:23:46.811Z,94912.66
2018-04-29T08:26:15.054Z,94909.54
2018-04-29T08:28:44.095Z,94919.53
2018-04-29T08:31:12.347Z,94908.97
2018-04-29T08:33:40.590Z,94908.72
2018-04-29T08:36:09.686Z,94903.02
2018-04-29T08:38:39.430Z,94904.20
2018-04-29T08:41:07.684Z,94905.45
2018-04-29T08:43:36.711Z,94903.61
2018-04-29T08:46:05.205Z,94900.53
2018-04-29T08:48:33.459Z,94900.48
2018-04-29T08:51:01.693Z,94902.70
2018-04-29T08:53:31.469Z,94895.91
2018-04-29T08:55:59.766Z,94894.70
2018-04-29T08:58:27.963Z,94902.77
2018-04-29T09:00:56.961Z,94905.44
2018-04-29T09:03:25.977Z,94898.67
2018-04-29T09:05:54.229Z,94886.77
2018-04-29T09:08:23.489Z,94889.14
2018-04-29T09:10:51.717Z,94880.16
2018-04-29T09:13:20.002Z,94881.20
2018-04-29T09:15:48.259Z,94877.52
2018-04-29T09:18:16.531Z,94877.46
2018-04-29T09:20:45.542Z,94880.96
2018-04-29T09:23:13.795Z,94879.91
2018-04-29T09:25:42.809Z,94871.44
2018-04-29T09:28:11.321Z,94867.62
2018-04-29T09:30:39.554Z,94862.47
2018-04-29T09:33:08.554Z,94863.81
2018-04-29T09:35:36.870Z,94853.84
2018-04-29T09:38:05.118Z,94857.33
2018-04-29T09:40:33.354Z,94857.20
2018-04-29T09:43:02.428Z,94854.34
2018-04-29T09:45:30.700Z,94851.80
2018-04-29T09:47:58.930Z,94846.59
2018-04-29T09:50:27.986Z,94846.36
2018-04-29T09:52:57.763Z,94844.22
2018-04-29T09:55:26.042Z,94847.39
2018-04-29T09:57:55.006Z,94843.20
2018-04-29T10:00:27.222Z,94844.38
2018-04-29T10:03:01.169Z,94846.73
2018-04-29T10:05:30.271Z,94851.11
2018-04-29T10:07:59.282Z,94848.89
2018-04-29T10:10:27.514Z,94840.65
2018-04-29T10:12:57.273Z,94844.52
2018-04-29T10:15:25.559Z,94831.20
2018-04-29T10:17:53.802Z,94826.21
2018-04-29T10:20:22.813Z,94822.14
2018-04-29T10:22:51.083Z,94831.70
2018-04-29T10:25:19.654Z,94825.85
2018-04-29T10:27:47.950Z,94819.17
2018-04-29T10:30:16.198Z,94816.86
2018-04-29T10:32:45.295Z,94808.63
2018-04-29T10:35:13.474Z,94808.20
2018-04-29T10:37:42.496Z,94805.82
2018-04-29T10:40:10.761Z,94799.27
2018-04-29T10:42:39.044Z,94796.43
2018-04-29T10:45:07.556Z,94795.82
2018-04-29T10:47:35.823Z,94794.69
2018-04-29T10:50:04.115Z,94785.91
2018-04-29T10:52:32.446Z,94791.23
2018-04-29T10:55:01.430Z,94787.22
2018-04-29T10:57:29.715Z,94777.55
2018-04-29T10:59:58.742Z,94776.40
2018-04-29T11:02:26.982Z,94770.91
2018-04-29T11:04:56.047Z,94764.67
2018-04-29T11:07:24.310Z,94759.80
2018-04-29T11:09:52.566Z,94760.48
2018-04-29T11:12:20.819Z,94756.80
2018-04-29T11:14:49.074Z,94743.14
2018-04-29T11:17:17.371Z,94745.05
2018-04-29T11:19:45.642Z,94743.94
2018-04-29T11:22:13.919Z,94747.23
2018-04-29T11:24:42.123Z,94747.37
2018-04-29T11:27:12.051Z,94743.09
2018-04-29T11:29:40.289Z,94739.28
2018-04-29T11:32:08.591Z,94741.78
2018-04-29T11:34:36.842Z,94728.80
2018-04-29T11:37:05.140Z,94734.42
2018-04-29T11:39:33.394Z,94731.27
2018-04-29T11:42:01.650Z,94721.55
2018-04-29T11:44:29.937Z,94712.95
2018-04-29T11:46:58.235Z,94714.17
2018-04-29T11:49:26.472Z,94712.05
2018-04-29T11:51:55.475Z,94700.73
2018-04-29T11:54:24.154Z,94703.65
2018-04-29T11:56:52.433Z,94697.58
2018-04-29T11:59:20.726Z,94698.89
2018-04-29T12:01:49.311Z,94689.52
2018-04-29T12:04:17.472Z,94691.61
2018-04-29T12:06:45.726Z,94681.93
2018-04-29T12:09:14.790Z,94685.41
2018-04-29T12:11:43.050Z,94677.19
2018-04-29T12:14:11.280Z,94676.78
2018-04-29T12:16:40.335Z,94670.02
2018-04-29T12:19:10.097Z,94666.66
2018-04-29T12:21:38.358Z,94668.60
2018-04-29T12:24:06.656Z,94669.70
2018-04-29T12:26:34.971Z,94661.86
2018-04-29T12:29:04.020Z,94659.23
2018-04-29T12:31:32.308Z,94653.14
2018-04-29T12:34:00.574Z,94647.02
2018-04-29T12:36:28.854Z,94636.95
2018-04-29T12:38:57.096Z,94639.34
2018-04-29T12:41:26.117Z,94643.67
2018-04-29T12:43:54.405Z,94641.34
2018-04-29T12:46:22.640Z,94645.01
2018-04-29T12:48:51.651Z,94639.63
2018-04-29T12:51:20.210Z,94624.55
2018-04-29T12:53:48.431Z,94610.84
2018-04-29T12:56:16.669Z,94611.56
2018-04-29T12:58:45.715Z,94604.52
2018-04-29T13:01:14.735Z,94602.29
2018-04-29T13:03:43.733Z,94595.84
2018-04-29T13:06:13.489Z,94592.61
2018-04-29T13:08:41.774Z,94589.65
2018-04-29T13:11:10.067Z,94587.55
2018-04-29T13:13:38.560Z,94583.04
2018-04-29T13:16:06.808Z,94571.48
2018-04-29T13:18:35.045Z,94571.33
2018-04-29T13:21:04.150Z,94568.59
2018-04-29T13:23:33.211Z,94562.66
2018-04-29T13:26:02.259Z,94563.76
2018-04-29T13:28:30.509Z,94562.59
2018-04-29T13:30:59.567Z,94553.22
2018-04-29T13:33:27.809Z,94543.75
2018-04-29T13:35:56.110Z,94541.40
2018-04-29T13:38:24.337Z,94539.27
2018-04-29T13:40:52.598Z,94535.89
2018-04-29T13:43:20.883Z,94526.48
2018-04-29T13:45:49.881Z,94524.89
2018-04-29T13:48:18.118Z,94518.64
2018-04-29T13:50:47.146Z,94513.91
2018-04-29T13:53:16.145Z,94512.33
2018-04-29T13:55:44.394Z,94509.91
2018-04-29T13:58:13.670Z,94500.09
2018-04-29T14:00:41.898Z,94494.27
2018-04-29T14:03:10.147Z,94488.39
2018-04-29T14:05:38.393Z,94481.28
2018-04-29T14:08:07.418Z,94485.98
2018-04-29T14:10:36.448Z,94475.44
2018-04-29T14:13:05.449Z,94472.30
2018-04-29T14:15:33.685Z,94464.06
2018-04-29T14:18:02.707Z,94456.62
2018-04-29T14:20:30.941Z,94452.48
2018-04-29T14:22:59.174Z,94455.62
2018-04-29T14:25:27.422Z,94454.05
2018-04-29T14:27:55.659Z,94441.70
2018-04-29T14:30:24.686Z,94440.70
2018-04-29T14:32:52.930Z,94434.44
2018-04-29T14:35:21.163Z,94428.35
2018-04-29T14:37:49.425Z,94429.14
2018-04-29T14:40:17.670Z,94419.32
2018-04-29T14:42:46.678Z,94419.72
2018-04-29T14:45:15.690Z,94415.80
2018-04-29T14:47:43.977Z,94408.34
2018-04-29T14:50:12.209Z,94412.25
2018-04-29T14:52:41.221Z,94406.33
2018-04-29T14:55:09.520Z,94402.80
2018-04-29T14:57:37.763Z,94394.75
2018-04-29T15:00:06.774Z,94393.34
2018-04-29T15:02:35.018Z,94389.81
2018-04-29T15:05:04.034Z,94392.88
2018-04-29T15:07:32.294Z,94389.15
2018-04-29T15:10:01.306Z,94384.40
2018-04-29T15:12:29.558Z,94374.55
2018-04-29T15:14:58.561Z,94384.45
2018-04-29T15:17:27.584Z,94386.13
2018-04-29T15:19:55.849Z,94382.67
2018-04-29T15:22:24.117Z,94384.72
2018-04-29T15:24:52.388Z,94379.80
2018-04-29T15:27:21.398Z,94379.23
2018-04-29T15:29:49.649Z,94382.26
2018-04-29T15:32:18.658Z,94376.70
2018-04-29T15:34:47.925Z,94371.78
2018-04-29T15:37:16.161Z,94359.98
2018-04-29T15:39:44.428Z,94358.81
2018-04-29T15:42:12.686Z,94355.89
2018-04-29T15:44:40.962Z,94353.14
2018-04-29T15:47:09.210Z,94339.13
2018-04-29T15:49:38.231Z,94338.33
2018-04-29T15:52:06.474Z,94345.50
2018-04-29T15:54:35.474Z,94348.22
2018-04-29T15:57:04.512Z,94337.30
2018-04-29T15:59:32.825Z,94339.66
2018-04-29T16:02:01.761Z,94335.64
2018-04-29T16:04:30.165Z,94332.13
2018-04-29T16:06:58.409Z,94333.55
2018-04-29T16:09:27.411Z,94327.85
2018-04-29T16:11:55.657Z,94324.41
2018-04-29T16:14:24.678Z,94316.96
2018-04-29T16:16:52.918Z,94319.72
2018-04-29T16:19:21.983Z,94316.58
2018-04-29T16:21:50.230Z,94316.56
2018-04-29T16:24:18.517Z,94317.55
2018-04-29T16:26:46.803Z,94315.37
2018-04-29T16:29:15.097Z,94300.72
2018-04-29T16:31:43.331Z,94297.74
2018-04-29T16:34:11.598Z,94305.15
2018-04-29T16:36:39.841Z,94306.18
2018-04-29T16:39:08.867Z,94298.02
2018-04-29T16:41:37.871Z,94309.89
2018-04-29T16:44:06.132Z,94298.89
2018-04-29T16:46:35.151Z,94303.80
2018-04-29T16:49:03.386Z,94300.65
2018-04-29T16:51:32.410Z,94297.91
2018-04-29T16:54:00.688Z,94299.89
2018-04-29T16:56:28.924Z,94296.73
2018-04-29T16:58:57.922Z,94298.27
2018-04-29T17:01:26.942Z,94288.41
2018-04-29T17:03:55.195Z,94283.71
2018-04-29T17:06:24.208Z,94288.31
2018-04-29T17:08:52.497Z,94291.00
2018-04-29T17:11:20.966Z,94292.37
2018-04-29T17:13:49.193Z,94288.45
2018-04-29T17:16:17.457Z,94273.16
2018-04-29T17:18:45.746Z,94281.89
2018-04-29T17:21:14.788Z,94277.84
2018-04-29T17:23:43.055Z,94269.07
2018-04-29T17:26:12.177Z,94267.83
2018-04-29T17:28:40.470Z,94267.66
2018-04-29T17:31:08.772Z,94268.13
2018-04-29T17:33:38.568Z,94261.90
2018-04-29T17:36:06.855Z,94263.51
2018-04-29T17:38:36.787Z,94259.69
2018-04-29T17:41:06.573Z,94255.34
2018-04-29T17:43:34.857Z,94251.77
2018-04-29T17:46:03.112Z,94250.17
2018-04-29T17:48:31.411Z,94256.50
2018-04-29T17:50:59.681Z,94252.03
2018-04-29T17:53:28.715Z,94248.75
2018-04-29T17:55:57.027Z,94247.53
2018-04-29T17:58:25.351Z,94240.04
2018-04-29T18:00:55.135Z,94243.32
2018-04-29T18:03:23.442Z,94239.53
2018-04-29T18:05:53.145Z,94243.34
2018-04-29T18:08:22.205Z,94243.80
2018-04-29T18:10:50.473Z,94245.51
2018-04-29T18:13:18.771Z,94245.87
2018-04-29T18:15:47.032Z,94247.07
2018-04-29T18:18:15.326Z,94242.76
2018-04-29T18:20:43.697Z,94249.38
2018-04-29T18:23:11.982Z,94238.58
2018-04-29T18:25:40.273Z,94248.94
2018-04-29T18:28:09.299Z,94237.84
2018-04-29T18:30:37.647Z,94241.07
2018-04-29T18:33:06.710Z,94229.92
2018-04-29T18:35:34.990Z,94228.95
2018-04-29T18:38:03.264Z,94230.68
2018-04-29T18:40:31.548Z,94246.37
2018-04-29T18:42:59.861Z,94243.95
2018-04-29T18:45:28.415Z,94232.38
2018-04-29T18:47:57.444Z,94249.77
2018-04-29T18:50:26.568Z,94242.96
2018-04-29T18:52:55.614Z,94237.20
2018-04-29T18:55:24.651Z,94244.78
2018-04-29T18:57:52.932Z,94243.90
2018-04-29T19:00:21.427Z,94241.38
2018-04-29T19:02:49.744Z,94243.22
2018-04-29T19:05:18.857Z,94234.80
2018-04-29T19:07:47.894Z,94237.27
2018-04-29T19:10:16.182Z,94239.79
2018-04-29T19:12:44.550Z,94237.12
2018-04-29T19:15:12.798Z,94250.11
2018-04-29T19:17:41.146Z,94243.63
2018-04-29T19:20:10.163Z,94242.98
2018-04-29T19:22:38.406Z,94241.81
2018-04-29T19:25:07.430Z,94241.45
2018-04-29T19:27:35.670Z,94243.80
2018-04-29T19:30:04.682Z,94243.84
2018-04-29T19:32:33.698Z,94236.39
2018-04-29T19:35:01.973Z,94248.76
2018-04-29T19:37:30.979Z,94247.86
2018-04-29T19:39:59.218Z,94251.84
2018-04-29T19:42:28.222Z,94253.48
2018-04-29T19:44:57.226Z,94254.27
2018-04-29T19:47:25.485Z,94252.52
2018-04-29T19:49:54.486Z,94248.63
2018-04-29T19:52:23.482Z,94256.67
2018-04-29T19:54:51.741Z,94248.52
2018-04-29T19:57:20.889Z,94251.17
2018-04-29T19:59:49.225Z,94241.63
2018-04-29T20:02:18.299Z,94245.48
2018-04-29T20:04:48.054Z,94243.12
2018-04-29T20:07:16.297Z,94235.42
2018-04-29T20:09:45.313Z,94236.76
2018-04-29T20:12:13.555Z,94230.84
2018-04-29T20:14:42.810Z,94224.72
2018-04-29T20:17:11.043Z,94224.76
2018-04-29T20:19:40.071Z,94225.98
2018-04-29T20:22:08.386Z,94224.39
2018-04-29T20:24:36.677Z,94224.13
2018-04-29T20:27:05.728Z,94222.50
2018-04-29T20:29:34.024Z,94216.91
2018-04-29T20:32:02.333Z,94211.30
2018-04-29T20:34:30.585Z,94208.05
2018-04-29T20:36:59.807Z,94209.77
2018-04-29T20:39:28.823Z,94208.84
2018-04-29T20:41:57.078Z,94202.52
2018-04-29T20:44:26.152Z,94196.80
2018-04-29T20:46:54.417Z,94186.19
2018-04-29T20:49:22.729Z,94172.38
2018-04-29T20:51:51.043Z,94172.54
2018-04-29T20:54:19.341Z,94166.73
2018-04-29T20:56:49.152Z,94165.28
2018-04-29T20:59:18.959Z,94160.50
2018-04-29T21:01:48.044Z,94153.61
2018-04-29T21:04:16.331Z,94166.77
2018-04-29T21:06:44.658Z,94154.06
2018-04-29T21:09:12.962Z,94156.67
2018-04-29T21:11:41.262Z,94153.80
2018-04-29T21:14:09.795Z,94160.58
2018-04-29T21:16:38.041Z,94158.75
2018-04-29T21:19:07.815Z,94156.59
2018-04-29T21:21:36.097Z,94156.34
2018-04-29T21:24:04.389Z,94153.41
2018-04-29T21:26:32.753Z,94151.55
2018-04-29T21:29:01.042Z,94150.78
2018-04-29T21:31:29.322Z,94141.72
2018-04-29T21:33:57.599Z,94142.16
2018-04-29T21:36:25.908Z,94141.03
2018-04-29T21:38:54.209Z,94138.75
2018-04-29T21:41:22.509Z,94141.07
2018-04-29T21:43:50.804Z,94134.98
2018-04-29T21:46:19.277Z,94131.60
2018-04-29T21:48:47.570Z,94131.13
2018-04-29T21:51:16.629Z,94127.77
2018-04-29T21:53:44.925Z,94120.25
2018-04-29T21:56:13.261Z,94125.20
2018-04-29T21:58:42.273Z,94125.97
2018-04-29T22:01:10.555Z,94123.78
2018-04-29T22:03:38.851Z,94125.89
2018-04-29T22:06:08.171Z,94121.15
2018-04-29T22:08:37.222Z,94121.51
2018-04-29T22:11:05.601Z,94116.69
2018-04-29T22:13:34.637Z,94123.07
2018-04-29T22:16:02.938Z,94123.95
2018-04-29T22:18:31.995Z,94115.77
2018-04-29T22:21:00.277Z,94108.98
2018-04-29T22:23:28.554Z,94111.87
2018-04-29T22:25:56.863Z,94104.67
2018-04-29T22:28:25.147Z,94096.63
2018-04-29T22:30:53.469Z,94093.20
2018-04-29T22:33:22.823Z,94095.33
2018-04-29T22:35:51.138Z,94087.06
2018-04-29T22:38:19.429Z,94086.19
2018-04-29T22:40:47.708Z,94088.34
2018-04-29T22:43:16.004Z,94084.64
2018-04-29T22:45:45.072Z,94084.23
2018-04-29T22:48:13.346Z,94085.80
2018-04-29T22:50:41.623Z,94092.97
2018-04-29T22:53:09.916Z,94096.53
2018-04-29T22:55:39.003Z,94089.46
2018-04-29T22:58:07.256Z,94087.91
2018-04-29T23:00:35.561Z,94090.42
2018-04-29T23:03:03.800Z,94073.67
2018-04-29T23:05:32.098Z,94081.58
2018-04-29T23:08:00.374Z,94077.51
2018-04-29T23:10:28.650Z,94084.36
2018-04-29T23:12:56.940Z,94084.31
2018-04-29T23:15:25.225Z,94080.13
2018-04-29T23:17:55.015Z,94080.81
2018-04-29T23:20:23.316Z,94079.73
2018-04-29T23:22:52.400Z,94066.74
2018-04-29T23:25:20.738Z,94070.17
2018-04-29T23:27:49.159Z,94065.03
2018-04-29T23:30:18.247Z,94048.41
2018-04-29T23:32:46.514Z,94048.28
2018-04-29T23:35:14.800Z,94037.84
2018-04-29T23:37:44.595Z,94039.88
2018-04-29T23:40:12.887Z,94037.29
2018-04-29T23:42:41.166Z,94033.31
2018-04-29T23:45:09.431Z,94025.14
2018-04-29T23:47:37.790Z,94032.04
2018-04-29T23:50:05.984Z,94025.34
2018-04-29T23:52:34.264Z,94024.26
2018-04-29T23:55:02.553Z,94024.38
2018-04-29T23:57:31.730Z,94026.24
